Time;durP1;ratioP1;P1;durP2;ratioP2;P2;SDS_P1;SDS_P2;PMS_P1;PMS_P2;Temp;Humidity;BMP_temperature;BMP_pressure;BME280_temperature;BME280_humidity;BME280_pressure;Samples;Min_cycle;Max_cycle;Signal;HPM_P1;HPM_P2
2020/12/07 00:01:58;;;;;;;34.70;17.10;;;;;;;2.93;77.69;99867.97;1715246;81;25832;-72
2020/12/07 00:04:25;;;;;;;38.67;17.60;;;;;;;2.92;77.75;99862.27;1693598;81;26019;-70
2020/12/07 00:06:54;;;;;;;38.65;18.50;;;;;;;2.90;77.74;99857.46;1665318;83;26348;-70
2020/12/07 00:09:21;;;;;;;30.72;16.12;;;;;;;2.91;77.79;99859.66;1663289;83;26813;-70
2020/12/07 00:11:50;;;;;;;30.70;16.32;;;;;;;2.88;77.78;99860.60;1688454;83;27738;-69
2020/12/07 00:14:18;;;;;;;33.28;17.50;;;;;;;2.89;77.83;99862.34;1704967;81;25986;-71
2020/12/07 00:16:46;;;;;;;34.48;16.57;;;;;;;2.89;77.84;99860.14;1718732;81;25891;-71
2020/12/07 00:19:14;;;;;;;36.77;16.40;;;;;;;2.86;77.84;99861.55;1700788;81;25861;-71
2020/12/07 00:21:43;;;;;;;37.10;17.77;;;;;;;2.85;77.83;99861.13;1687739;82;25821;-69
2020/12/07 00:24:11;;;;;;;41.30;17.35;;;;;;;2.84;77.89;99859.39;1689498;81;26761;-70
2020/12/07 00:26:44;;;;;;;36.95;18.45;;;;;;;2.83;77.89;99865.14;1698741;82;25894;-70
2020/12/07 00:29:12;;;;;;;37.00;16.65;;;;;;;2.82;77.89;99858.55;1690367;81;25921;-70
2020/12/07 00:31:40;;;;;;;40.67;17.67;;;;;;;2.80;77.93;99858.59;1697691;82;25942;-70
2020/12/07 00:34:07;;;;;;;35.68;17.92;;;;;;;2.80;77.95;99861.24;1693808;82;26369;-70
2020/12/07 00:36:35;;;;;;;32.10;15.85;;;;;;;2.75;77.96;99853.00;1693881;83;27903;-70
2020/12/07 00:39:03;;;;;;;37.98;17.85;;;;;;;2.78;77.95;99857.77;1696949;83;25809;-70
2020/12/07 00:41:30;;;;;;;42.40;19.75;;;;;;;2.76;77.96;99855.61;1698175;82;26523;-70
2020/12/07 00:43:58;;;;;;;33.18;16.45;;;;;;;2.75;77.97;99855.64;1698785;81;26387;-70
2020/12/07 00:46:26;;;;;;;40.98;18.70;;;;;;;2.72;77.95;99851.30;1698150;82;25890;-70
2020/12/07 00:48:54;;;;;;;36.28;18.20;;;;;;;2.72;78.02;99844.68;1698840;81;27123;-69
2020/12/07 00:51:21;;;;;;;37.25;17.40;;;;;;;2.72;78.03;99849.97;1708277;81;26365;-71
2020/12/07 00:53:49;;;;;;;41.30;17.82;;;;;;;2.70;78.01;99850.46;1658361;84;25916;-71
2020/12/07 00:56:17;;;;;;;39.08;18.42;;;;;;;2.68;78.05;99840.37;1709159;81;26594;-69
2020/12/07 00:58:45;;;;;;;32.45;17.15;;;;;;;2.66;78.01;99843.95;1697876;83;25836;-69
2020/12/07 01:01:13;;;;;;;33.88;17.07;;;;;;;2.63;78.08;99844.91;1707758;81;27960;-69
2020/12/07 01:03:40;;;;;;;39.75;18.57;;;;;;;2.64;78.13;99842.67;1692904;83;25935;-70
2020/12/07 01:06:08;;;;;;;37.93;17.90;;;;;;;2.63;78.14;99838.73;1690463;81;26172;-70
2020/12/07 01:08:36;;;;;;;36.10;17.27;;;;;;;2.61;78.15;99835.67;1692165;81;25812;-69
2020/12/07 01:11:03;;;;;;;31.95;17.32;;;;;;;2.60;78.11;99829.97;1692027;82;25787;-70
2020/12/07 01:13:31;;;;;;;31.50;16.07;;;;;;;2.58;78.16;99818.59;1685369;81;27756;-69
2020/12/07 01:15:59;;;;;;;37.00;18.57;;;;;;;2.57;78.17;99812.88;1690758;83;25911;-69
2020/12/07 01:18:27;;;;;;;35.20;17.07;;;;;;;2.56;78.22;99812.92;1692060;81;25792;-70
2020/12/07 01:20:54;;;;;;;40.80;19.00;;;;;;;2.56;78.20;99815.56;1692792;83;25915;-69
2020/12/07 01:23:22;;;;;;;41.28;18.55;;;;;;;2.55;78.24;99808.08;1717343;81;26081;-69
2020/12/07 01:25:50;;;;;;;38.33;16.15;;;;;;;2.54;78.22;99810.77;1690884;81;25968;-68
2020/12/07 01:28:17;;;;;;;33.05;15.93;;;;;;;2.52;78.26;99805.51;1690883;81;25859;-71
2020/12/07 01:30:45;;;;;;;38.05;18.48;;;;;;;2.51;78.30;99797.61;1689407;83;26443;-71
2020/12/07 01:33:13;;;;;;;35.78;16.97;;;;;;;2.51;78.33;99797.61;1690011;81;25865;-71
2020/12/07 01:35:42;;;;;;;38.88;17.82;;;;;;;2.50;78.31;99803.81;1632577;86;26446;-71
2020/12/07 01:38:09;;;;;;;37.73;17.82;;;;;;;2.48;78.33;99795.04;1699544;81;28366;-69
2020/12/07 01:40:37;;;;;;;37.05;17.45;;;;;;;2.46;78.35;99788.47;1626222;86;26117;-68
2020/12/07 01:43:05;;;;;;;40.55;18.10;;;;;;;2.46;78.37;99787.14;1663154;83;26095;-68
2020/12/07 01:45:33;;;;;;;40.55;18.75;;;;;;;2.44;78.37;99781.47;1696294;81;25893;-69
2020/12/07 01:48:01;;;;;;;42.67;18.90;;;;;;;2.44;78.39;99787.63;1691122;83;25808;-68
2020/12/07 01:50:28;;;;;;;32.95;18.20;;;;;;;2.42;78.42;99780.64;1692354;81;27742;-71
2020/12/07 01:52:58;;;;;;;38.70;18.37;;;;;;;2.41;78.43;99770.52;1711371;82;25805;-70
2020/12/07 01:55:26;;;;;;;40.73;19.20;;;;;;;2.41;78.45;99786.38;1680480;81;25888;-69
2020/12/07 01:57:54;;;;;;;40.35;20.12;;;;;;;2.41;78.46;99794.77;1715747;82;26453;-71
2020/12/07 02:00:23;;;;;;;40.95;18.85;;;;;;;2.40;78.49;99790.39;1688193;81;26029;-69
2020/12/07 02:02:51;;;;;;;45.60;20.05;;;;;;;2.41;78.49;99791.67;1688109;83;27817;-70
2020/12/07 02:05:19;;;;;;;42.60;18.98;;;;;;;2.40;78.51;99795.67;1689536;82;25815;-69
2020/12/07 02:07:46;;;;;;;41.63;21.20;;;;;;;2.39;78.53;99792.16;1692360;81;25806;-69
2020/12/07 02:10:14;;;;;;;42.40;20.27;;;;;;;2.40;78.54;99789.94;1712773;81;25829;-70
2020/12/07 02:12:42;;;;;;;46.68;20.40;;;;;;;2.40;78.53;99787.74;1687726;83;25859;-70
2020/12/07 02:15:09;;;;;;;45.45;20.77;;;;;;;2.38;78.60;99771.05;1688895;82;27986;-69
2020/12/07 02:17:37;;;;;;;41.00;19.85;;;;;;;2.39;78.59;99788.65;1663207;84;26059;-69
2020/12/07 02:20:05;;;;;;;36.77;19.92;;;;;;;2.39;78.60;99780.27;1661047;84;25945;-69
2020/12/07 02:22:33;;;;;;;40.90;18.50;;;;;;;2.40;78.64;99782.45;1661137;83;26154;-69
2020/12/07 02:25:00;;;;;;;42.17;20.05;;;;;;;2.40;78.62;99779.36;1656269;84;25972;-70
2020/12/07 02:27:28;;;;;;;43.60;21.35;;;;;;;2.39;78.64;99775.42;1688218;82;27815;-70
2020/12/07 02:29:56;;;;;;;41.92;19.55;;;;;;;2.38;78.68;99770.59;1716242;82;26176;-71
2020/12/07 02:32:23;;;;;;;40.63;19.30;;;;;;;2.38;78.66;99761.78;1687389;82;25810;-71
2020/12/07 02:34:51;;;;;;;39.80;20.17;;;;;;;2.37;78.71;99771.95;1693142;82;26385;-71
2020/12/07 02:37:19;;;;;;;34.70;18.57;;;;;;;2.38;78.69;99757.82;1690225;82;25859;-71
2020/12/07 02:39:46;;;;;;;41.75;21.00;;;;;;;2.36;78.68;99759.18;1689321;83;25950;-71
2020/12/07 02:42:14;;;;;;;41.30;18.48;;;;;;;2.36;78.70;99755.67;1685919;81;25919;-70
2020/12/07 02:44:42;;;;;;;37.30;18.73;;;;;;;2.37;78.75;99758.27;1690396;82;25780;-70
2020/12/07 02:47:10;;;;;;;41.10;19.87;;;;;;;2.40;78.79;99762.62;1680706;82;26189;-70
2020/12/07 02:49:38;;;;;;;33.75;18.07;;;;;;;2.42;78.77;99764.77;1690746;83;25902;-70
2020/12/07 02:52:06;;;;;;;36.20;18.55;;;;;;;2.43;78.79;99760.77;1689457;83;27918;-69
2020/12/07 02:54:33;;;;;;;46.48;20.77;;;;;;;2.45;78.80;99768.21;1689453;82;25788;-69
2020/12/07 02:57:01;;;;;;;39.08;19.57;;;;;;;2.47;78.81;99765.08;1693615;83;25837;-69
2020/12/07 02:59:29;;;;;;;33.15;17.30;;;;;;;2.50;78.84;99769.42;1689666;82;26076;-69
2020/12/07 03:01:56;;;;;;;43.40;20.10;;;;;;;2.52;78.80;99766.28;1664994;83;25909;-70
2020/12/07 03:04:24;;;;;;;41.40;19.27;;;;;;;2.53;78.81;99764.05;1669309;83;27912;-70
2020/12/07 03:06:52;;;;;;;40.38;19.67;;;;;;;2.55;78.83;99772.37;1667488;84;26628;-70
2020/12/07 03:09:20;;;;;;;40.55;20.55;;;;;;;2.59;78.83;99775.81;1666660;82;25931;-70
2020/12/07 03:11:47;;;;;;;39.48;20.23;;;;;;;2.60;78.88;99788.97;1666055;84;26422;-70
2020/12/07 03:14:17;;;;;;;51.42;20.70;;;;;;;2.64;78.88;99788.44;1647845;84;26627;-70
2020/12/07 03:16:45;;;;;;;39.73;19.75;;;;;;;2.66;78.88;99783.98;1678882;84;27929;-70
2020/12/07 03:19:12;;;;;;;35.78;18.55;;;;;;;2.68;78.88;99786.13;1665026;83;26094;-70
2020/12/07 03:21:40;;;;;;;37.50;17.25;;;;;;;2.70;78.86;99787.41;1666006;84;26551;-70
2020/12/07 03:24:08;;;;;;;41.37;19.45;;;;;;;2.73;78.87;99792.17;1668024;82;26089;-70
2020/12/07 03:26:36;;;;;;;34.98;17.92;;;;;;;2.75;78.87;99797.43;1694566;83;25963;-71
2020/12/07 03:29:05;;;;;;;36.10;19.12;;;;;;;2.76;78.88;99798.71;1666057;84;27743;-70
2020/12/07 03:31:36;;;;;;;37.45;18.75;;;;;;;2.77;78.87;99799.12;1666340;82;26148;-70
2020/12/07 03:34:05;;;;;;;36.33;18.20;;;;;;;2.78;78.88;99809.26;1669757;83;35040;-70
2020/12/07 03:36:33;;;;;;;36.38;17.90;;;;;;;2.78;78.88;99803.52;1692968;83;25685;-70
2020/12/07 03:39:03;;;;;;;32.88;17.85;;;;;;;2.78;78.89;99811.45;1655755;84;25841;-69
2020/12/07 03:41:31;;;;;;;32.50;17.95;;;;;;;2.79;78.90;99801.28;1658841;83;27380;-70
2020/12/07 03:43:59;;;;;;;39.90;19.67;;;;;;;2.81;78.90;99802.11;1661469;84;26394;-70
2020/12/07 03:46:27;;;;;;;33.95;18.25;;;;;;;2.81;78.91;99792.85;1665684;83;25822;-70
2020/12/07 03:48:55;;;;;;;35.48;18.15;;;;;;;2.82;78.93;99787.97;1666525;83;25822;-70
2020/12/07 03:51:22;;;;;;;30.12;16.77;;;;;;;2.83;78.93;99787.06;1669393;83;26280;-70
2020/12/07 03:53:50;;;;;;;32.65;18.02;;;;;;;2.84;78.91;99787.94;1662135;84;28412;-70
2020/12/07 03:56:18;;;;;;;35.45;18.12;;;;;;;2.82;78.90;99779.16;1668372;83;25885;-71
2020/12/07 03:58:45;;;;;;;29.90;16.60;;;;;;;2.81;78.89;99786.23;1673358;84;26408;-71
2020/12/07 04:01:13;;;;;;;34.95;17.10;;;;;;;2.78;78.87;99773.08;1689004;81;25650;-72
2020/12/07 04:03:44;;;;;;;34.78;16.52;;;;;;;2.79;78.91;99781.44;1646505;84;25807;-72
2020/12/07 04:06:18;;;;;;;34.55;18.15;;;;;;;2.80;78.89;99779.20;1699643;81;27785;-70
2020/12/07 04:08:41;;;;;;;34.33;17.35;;;;;;;2.79;78.88;99771.30;1710454;82;26042;-70
2020/12/07 04:11:08;;;;;;;31.60;16.37;;;;;;;2.79;78.89;99779.24;1687828;81;25906;-70
2020/12/07 04:13:36;;;;;;;34.15;18.98;;;;;;;2.78;78.86;99784.12;1673215;83;25791;-71
2020/12/07 04:16:05;;;;;;;35.17;18.02;;;;;;;2.74;78.84;99778.48;1680296;82;26133;-71
2020/12/07 04:18:32;;;;;;;30.30;16.27;;;;;;;2.72;78.87;99763.98;1694160;81;27710;-71
2020/12/07 04:21:00;;;;;;;31.42;16.35;;;;;;;2.67;78.81;99768.52;1657718;84;26586;-71
2020/12/07 04:23:31;;;;;;;34.03;17.30;;;;;;;2.61;78.82;99760.28;1694709;81;25910;-71
2020/12/07 04:25:59;;;;;;;34.90;17.20;;;;;;;2.59;78.84;99761.26;1721281;81;26448;-71
2020/12/07 04:28:27;;;;;;;38.25;17.90;;;;;;;2.54;78.87;99760.05;1696867;81;25873;-71
2020/12/07 04:30:55;;;;;;;36.00;16.45;;;;;;;2.52;78.88;99759.22;1722738;81;28025;-70
2020/12/07 04:33:23;;;;;;;35.35;15.95;;;;;;;2.50;78.90;99761.03;1696152;81;25938;-70
2020/12/07 04:35:50;;;;;;;37.85;18.30;;;;;;;2.49;78.89;99759.75;1691496;82;25974;-70
2020/12/07 04:38:18;;;;;;;31.07;15.38;;;;;;;2.46;78.91;99760.70;1697200;81;26547;-70
2020/12/07 04:40:47;;;;;;;36.23;16.87;;;;;;;2.45;78.92;99760.28;1699553;81;25836;-70
2020/12/07 04:43:18;;;;;;;38.10;17.02;;;;;;;2.43;78.92;99766.06;1701954;81;27864;-70
2020/12/07 04:45:46;;;;;;;;;;;;;;;2.43;78.92;99755.48;1675484;84;25885;-70
2020/12/07 04:48:15;;;;;;;28.80;16.20;;;;;;;2.43;78.95;99758.13;1651111;84;26609;-71
2020/12/07 04:50:43;;;;;;;32.78;16.52;;;;;;;2.42;78.93;99748.91;1692290;83;26642;-70
2020/12/07 04:53:12;;;;;;;30.55;16.35;;;;;;;2.39;78.90;99759.11;1695210;81;25913;-70
2020/12/07 04:55:41;;;;;;;33.63;15.70;;;;;;;2.40;78.90;99756.01;1697772;83;27292;-70
2020/12/07 04:58:11;;;;;;;31.87;18.42;;;;;;;2.37;78.89;99762.70;1701491;81;25953;-69
2020/12/07 05:00:41;;;;;;;36.08;19.05;;;;;;;2.36;78.88;99759.63;1685453;82;26969;-69
2020/12/07 05:03:10;;;;;;;33.75;17.45;;;;;;;2.33;78.94;99767.19;1661611;83;26022;-70
2020/12/07 05:05:38;;;;;;;31.57;16.87;;;;;;;2.36;78.97;99767.11;1659723;84;25903;-70
2020/12/07 05:08:06;;;;;;;31.62;16.52;;;;;;;2.36;78.94;99760.50;1671509;83;27523;-71
2020/12/07 05:10:41;;;;;;;29.42;16.45;;;;;;;2.36;78.94;99751.70;1666128;83;26427;-70
2020/12/07 05:13:33;;;;;;;33.00;16.62;;;;;;;2.35;78.93;99756.12;1669991;83;25915;-72
2020/12/07 05:15:56;;;;;;;30.68;16.25;;;;;;;2.33;78.92;99738.55;1687873;83;25901;-71
2020/12/07 05:18:24;;;;;;;31.27;15.70;;;;;;;2.31;78.95;99753.59;1688840;83;26460;-70
2020/12/07 05:20:52;;;;;;;33.42;16.93;;;;;;;2.28;78.91;99755.40;1663211;83;27766;-70
2020/12/07 05:23:20;;;;;;;30.65;15.88;;;;;;;2.26;78.91;99761.62;1663431;83;25929;-70
2020/12/07 05:25:48;;;;;;;33.95;15.93;;;;;;;2.23;78.94;99753.31;1662613;84;26621;-69
2020/12/07 05:28:25;;;;;;;33.80;16.93;;;;;;;2.22;78.91;99749.39;1663392;83;25768;-69
2020/12/07 05:30:50;;;;;;;35.45;16.75;;;;;;;2.19;78.93;99749.01;1661374;84;26045;-69
2020/12/07 05:33:19;;;;;;;26.05;13.62;;;;;;;2.03;78.93;99723.84;1663993;83;27570;-69
2020/12/07 05:35:53;;;;;;;30.62;15.75;;;;;;;2.17;78.93;99748.17;1655524;84;26400;-70
2020/12/07 05:38:33;;;;;;;29.00;15.55;;;;;;;2.14;78.92;99741.64;1661842;83;25844;-70
2020/12/07 05:41:04;;;;;;;30.12;15.03;;;;;;;2.12;78.96;99740.80;1660197;84;25838;-70
2020/12/07 05:43:33;;;;;;;28.90;15.48;;;;;;;2.12;78.97;99737.29;1663878;83;25958;-70
2020/12/07 05:46:01;;;;;;;28.10;14.78;;;;;;;2.11;78.96;99736.42;1661890;84;27420;-70
2020/12/07 05:48:35;;;;;;;33.67;15.35;;;;;;;2.12;78.98;99745.22;1663090;83;25931;-70
2020/12/07 05:51:07;;;;;;;31.50;16.17;;;;;;;2.10;78.96;99744.39;1665354;83;25428;-70
2020/12/07 05:53:38;;;;;;;25.17;13.40;;;;;;;2.11;78.99;99740.84;1659992;84;26002;-70
2020/12/07 05:56:08;;;;;;;28.40;14.90;;;;;;;2.11;78.95;99745.67;1661820;84;25802;-70
2020/12/07 05:59:11;;;;;;;29.85;15.95;;;;;;;2.11;79.01;99741.71;1659537;83;27704;-70
2020/12/07 06:01:40;;;;;;;34.05;16.25;;;;;;;2.09;78.97;99746.16;1664889;84;25881;-72
2020/12/07 06:04:09;;;;;;;34.00;16.12;;;;;;;2.07;79.03;99749.30;1680756;82;26608;-70
2020/12/07 06:06:41;;;;;;;32.40;15.63;;;;;;;2.07;79.02;99746.65;1679319;83;25850;-70
2020/12/07 06:09:14;;;;;;;24.52;13.28;;;;;;;2.04;79.02;99738.79;1680497;82;25843;-70
2020/12/07 06:11:47;;;;;;;40.17;15.25;;;;;;;2.01;79.02;99734.03;1669553;83;26317;-70
2020/12/07 06:14:16;;;;;;;29.45;14.43;;;;;;;2.05;79.00;99747.59;1648813;82;25775;-70
2020/12/07 06:16:46;;;;;;;26.97;14.13;;;;;;;2.04;79.00;99742.76;1628380;86;26041;-70
2020/12/07 06:19:16;;;;;;;28.10;15.20;;;;;;;2.03;79.04;99744.98;1670232;82;26185;-70
2020/12/07 06:22:00;;;;;;;23.95;12.60;;;;;;;2.04;79.04;99752.01;1665174;84;25751;-71
2020/12/07 06:24:42;;;;;;;28.95;15.23;;;;;;;2.04;79.01;99743.21;1673143;82;27447;-71
2020/12/07 06:27:13;;;;;;;26.25;13.32;;;;;;;2.04;79.02;99754.66;1666644;82;25840;-71
2020/12/07 06:30:05;;;;;;;36.70;15.93;;;;;;;2.04;79.03;99757.30;1674042;84;25889;-71
2020/12/07 06:32:51;;;;;;;30.30;13.48;;;;;;;2.04;79.04;99745.40;1689853;81;26333;-70
2020/12/07 06:35:20;;;;;;;26.50;13.55;;;;;;;2.02;79.05;99755.14;1689958;81;25975;-71
2020/12/07 06:37:51;;;;;;;23.00;12.55;;;;;;;2.02;79.04;99754.27;1691821;83;27076;-71
2020/12/07 06:40:24;;;;;;;23.70;12.53;;;;;;;2.01;79.02;99762.65;1684464;81;26263;-71
2020/12/07 06:42:51;;;;;;;23.92;12.82;;;;;;;2.02;79.03;99772.31;1690226;83;25843;-69
2020/12/07 06:45:24;;;;;;;24.05;12.53;;;;;;;2.02;79.04;99771.45;1690389;81;25800;-70
2020/12/07 06:47:52;;;;;;;30.20;13.53;;;;;;;2.03;79.03;99770.55;1690734;83;25852;-70
2020/12/07 06:50:28;;;;;;;27.60;13.62;;;;;;;2.02;79.03;99759.55;1669277;82;27762;-71
2020/12/07 06:52:53;;;;;;;25.25;11.08;;;;;;;2.02;79.04;99769.67;1666571;83;25947;-71
2020/12/07 06:55:20;;;;;;;27.75;12.68;;;;;;;2.04;79.04;99763.90;1673793;82;25922;-72
2020/12/07 06:57:52;;;;;;;25.57;12.95;;;;;;;2.05;79.02;99775.34;1674860;83;25867;-69
2020/12/07 07:00:25;;;;;;;25.27;11.68;;;;;;;2.05;79.02;99781.50;1665523;82;25876;-71
2020/12/07 07:02:57;;;;;;;26.85;12.60;;;;;;;2.07;79.06;99792.91;1700660;81;27576;-70
2020/12/07 07:05:28;;;;;;;33.67;13.15;;;;;;;2.10;79.05;99795.93;1694559;81;25915;-71
2020/12/07 07:07:57;;;;;;;24.35;13.08;;;;;;;2.12;79.04;99804.70;1697834;81;26439;-73
2020/12/07 07:10:25;;;;;;;25.40;12.33;;;;;;;2.14;79.07;99796.28;1697622;81;25968;-71
2020/12/07 07:12:52;;;;;;;25.25;12.13;;;;;;;2.15;79.04;99793.60;1696758;82;25918;-72
2020/12/07 07:15:20;;;;;;;18.85;10.85;;;;;;;2.16;79.00;99795.34;1666972;82;27924;-71
2020/12/07 07:17:49;;;;;;;19.55;11.60;;;;;;;2.17;79.01;99801.05;1693863;81;25871;-71
2020/12/07 07:20:17;;;;;;;22.85;11.65;;;;;;;2.19;79.01;99808.94;1698258;81;25656;-72
2020/12/07 07:22:47;;;;;;;21.68;12.00;;;;;;;2.21;79.03;99805.36;1698130;82;25831;-72
2020/12/07 07:28:06;;;;;;;22.52;11.70;;;;;;;2.27;79.00;99800.38;1688961;81;27691;-72
2020/12/07 07:30:34;;;;;;;24.75;11.53;;;;;;;2.28;78.99;99802.98;1699099;81;26936;-74
2020/12/07 07:33:02;;;;;;;22.48;12.63;;;;;;;2.32;78.99;99801.59;1725355;80;25878;-72
2020/12/07 07:35:32;;;;;;;21.27;12.05;;;;;;;2.32;78.94;99809.08;1754794;80;25877;-72
2020/12/07 07:37:59;;;;;;;23.12;12.13;;;;;;;2.32;78.94;99812.17;1753211;80;26060;-71
2020/12/07 07:40:29;;;;;;;22.27;11.70;;;;;;;2.33;78.96;99812.59;1706390;81;28367;-72
2020/12/07 07:43:01;;;;;;;25.80;10.43;;;;;;;2.33;78.95;99810.81;1745456;81;26061;-70
2020/12/07 07:45:37;;;;;;;29.23;12.18;;;;;;;2.36;78.92;99809.42;1721997;80;25856;-73
2020/12/07 07:51:10;;;;;;;19.60;10.13;;;;;;;2.36;78.87;99813.84;1705366;82;25860;-70
2020/12/07 07:53:58;;;;;;;20.88;11.30;;;;;;;2.34;78.86;99816.97;1725147;80;27429;-71
2020/12/07 07:59:49;;;;;;;23.52;11.90;;;;;;;2.37;78.88;99817.77;1723130;81;25929;-72
2020/12/07 08:11:26;;;;;;;23.38;11.50;;;;;;;2.40;78.80;99822.99;1745154;80;26942;-70
2020/12/07 08:15:58;;;;;;;29.55;12.10;;;;;;;2.44;78.75;99814.53;1739291;80;25858;-70
2020/12/07 08:18:35;;;;;;;34.35;12.25;;;;;;;2.47;78.80;99811.81;1728913;80;25924;-72
2020/12/07 08:21:04;;;;;;;21.37;10.68;;;;;;;2.51;78.78;99806.87;1711805;81;27433;-70
2020/12/07 08:23:34;;;;;;;23.98;11.08;;;;;;;2.53;78.73;99804.60;1753508;80;26345;-72
2020/12/07 08:26:04;;;;;;;19.15;11.38;;;;;;;2.56;78.67;99799.69;1698448;83;25851;-70
2020/12/07 08:28:38;;;;;;;23.10;11.28;;;;;;;2.60;78.73;99806.64;1732540;80;25783;-69
2020/12/07 08:31:15;;;;;;;22.45;11.68;;;;;;;2.64;78.70;99805.63;1738749;81;25869;-70
2020/12/07 08:34:07;;;;;;;23.45;11.38;;;;;;;2.65;78.67;99807.83;1744506;80;28343;-70
2020/12/07 08:36:35;;;;;;;25.75;12.15;;;;;;;2.69;78.65;99802.87;1750282;80;25799;-70
2020/12/07 08:39:05;;;;;;;24.98;12.43;;;;;;;2.71;78.60;99797.95;1742455;80;25934;-70
2020/12/07 08:41:36;;;;;;;20.33;11.33;;;;;;;2.72;78.57;99786.47;1744541;80;26053;-71
2020/12/07 08:44:07;;;;;;;22.07;11.95;;;;;;;2.74;78.58;99785.98;1742536;80;25920;-71
2020/12/07 08:46:38;;;;;;;21.77;12.03;;;;;;;2.76;78.51;99770.06;1727243;80;27493;-72
2020/12/07 08:49:08;;;;;;;23.25;12.78;;;;;;;2.79;78.53;99760.72;1720950;80;25800;-71
2020/12/07 08:51:36;;;;;;;20.80;11.70;;;;;;;2.83;78.51;99763.25;1718641;81;26038;-72
2020/12/07 08:54:05;;;;;;;21.27;11.45;;;;;;;2.86;78.48;99776.41;1719779;80;26644;-71
2020/12/07 08:56:32;;;;;;;24.43;12.18;;;;;;;2.90;78.47;99772.77;1746626;80;25923;-73
2020/12/07 08:59:00;;;;;;;32.70;14.05;;;;;;;2.93;78.43;99758.58;1743808;80;28397;-72
2020/12/07 09:01:28;;;;;;;25.95;13.03;;;;;;;2.94;78.39;99762.52;1744610;80;25974;-72
2020/12/07 09:03:56;;;;;;;21.82;11.28;;;;;;;2.99;78.39;99762.84;1744032;80;26485;-72
2020/12/07 09:06:23;;;;;;;20.00;10.43;;;;;;;3.03;78.41;99774.64;1742902;80;25779;-72
2020/12/07 09:08:51;;;;;;;22.45;11.53;;;;;;;3.09;78.32;99774.92;1743218;80;25946;-71
2020/12/07 09:11:19;;;;;;;22.55;12.00;;;;;;;3.09;78.24;99780.22;1713532;80;27958;-70
2020/12/07 09:13:48;;;;;;;23.67;12.10;;;;;;;3.10;78.26;99781.95;1725274;81;26298;-70
2020/12/07 09:16:16;;;;;;;23.07;11.18;;;;;;;3.15;78.31;99778.73;1745828;80;25975;-71
2020/12/07 09:18:44;;;;;;;22.25;11.48;;;;;;;3.18;78.25;99778.20;1747926;80;26035;-70
2020/12/07 09:21:12;;;;;;;29.23;11.65;;;;;;;3.20;78.17;99772.41;1753795;80;25812;-71
2020/12/07 09:23:40;;;;;;;22.65;12.88;;;;;;;3.23;78.19;99779.39;1757495;80;27710;-71
2020/12/07 09:26:08;;;;;;;26.75;12.15;;;;;;;3.30;78.19;99773.47;1755798;80;25827;-71
2020/12/07 09:28:37;;;;;;;22.73;11.08;;;;;;;3.23;78.14;99752.91;1727957;80;25941;-70
2020/12/07 09:31:05;;;;;;;25.72;12.78;;;;;;;3.33;78.11;99763.66;1730010;80;25934;-71
2020/12/07 09:33:34;;;;;;;36.98;12.35;;;;;;;3.37;78.03;99763.98;1725075;81;26056;-71
2020/12/07 09:36:04;;;;;;;21.97;11.88;;;;;;;3.42;78.09;99763.41;1710753;81;28362;-71
2020/12/07 09:38:33;;;;;;;23.75;10.50;;;;;;;3.48;78.03;99765.88;1697108;81;25912;-71
2020/12/07 09:41:01;;;;;;;26.45;11.22;;;;;;;3.50;77.98;99774.66;1687742;83;25945;-70
2020/12/07 09:43:28;;;;;;;33.85;11.45;;;;;;;3.50;77.91;99770.67;1713584;81;25930;-71
2020/12/07 09:45:56;;;;;;;23.12;10.05;;;;;;;3.51;77.92;99760.49;1728739;81;26005;-71
2020/12/07 09:48:24;;;;;;;22.27;10.18;;;;;;;3.52;77.90;99768.85;1752960;80;27760;-71
2020/12/07 09:50:51;;;;;;;24.30;12.13;;;;;;;3.55;77.82;99772.73;1718618;81;25753;-71
2020/12/07 09:53:19;;;;;;;20.25;10.78;;;;;;;3.58;77.88;99779.27;1763915;80;25556;-71
2020/12/07 09:55:47;;;;;;;21.77;10.68;;;;;;;3.61;77.83;99764.20;1733570;81;25669;-71
2020/12/07 09:58:15;;;;;;;24.07;11.30;;;;;;;3.65;77.84;99757.90;1723833;80;25866;-73
2020/12/07 10:00:43;;;;;;;22.37;11.18;;;;;;;3.70;77.83;99762.61;1698255;81;28354;-70
2020/12/07 10:03:11;;;;;;;34.50;15.53;;;;;;;3.71;77.72;99768.31;1719488;81;26052;-70
2020/12/07 10:05:39;;;;;;;26.77;13.43;;;;;;;3.71;77.67;99764.34;1720505;80;26021;-70
2020/12/07 10:08:06;;;;;;;37.53;15.05;;;;;;;3.72;77.65;99774.03;1699804;81;26414;-73
2020/12/07 10:10:34;;;;;;;31.27;14.65;;;;;;;3.75;77.67;99768.64;1707413;81;26178;-72
2020/12/07 10:13:02;;;;;;;24.43;12.68;;;;;;;3.78;77.61;99772.52;1724220;81;28355;-72
2020/12/07 10:15:30;;;;;;;25.50;12.28;;;;;;;3.78;77.55;99777.37;1747310;80;26109;-71
2020/12/07 10:17:58;;;;;;;22.82;11.28;;;;;;;3.79;77.55;99784.41;1726102;81;26171;-71
2020/12/07 10:20:26;;;;;;;26.27;12.53;;;;;;;3.84;77.52;99788.25;1725014;81;26390;-71
2020/12/07 10:22:53;;;;;;;18.50;10.70;;;;;;;3.86;77.51;99787.28;1725160;81;25789;-72
2020/12/07 10:25:21;;;;;;;19.95;11.18;;;;;;;3.91;77.48;99791.12;1705779;81;28489;-73
2020/12/07 10:27:49;;;;;;;22.15;12.07;;;;;;;3.96;77.45;99789.20;1737018;81;25999;-71
2020/12/07 10:30:16;;;;;;;20.30;10.10;;;;;;;3.98;77.41;99786.05;1741400;80;26103;-72
2020/12/07 10:32:44;;;;;;;28.27;11.45;;;;;;;4.05;77.42;99784.95;1743567;80;26061;-72
2020/12/07 10:35:12;;;;;;;20.30;12.37;;;;;;;4.06;77.31;99777.86;1717560;81;25881;-71
2020/12/07 10:37:40;;;;;;;21.85;10.78;;;;;;;4.08;77.30;99783.53;1715451;82;28422;-72
2020/12/07 10:40:08;;;;;;;24.60;11.20;;;;;;;4.09;77.22;99791.90;1710784;81;25884;-70
2020/12/07 10:42:35;;;;;;;21.05;11.50;;;;;;;4.08;77.21;99777.36;1716068;82;26584;-70
2020/12/07 10:45:04;;;;;;;21.45;11.85;;;;;;;4.12;77.19;99780.33;1733431;80;26108;-74
2020/12/07 10:47:32;;;;;;;29.12;12.88;;;;;;;4.13;77.20;99782.06;1710642;81;26152;-70
2020/12/07 10:50:00;;;;;;;23.75;11.10;;;;;;;4.16;77.14;99788.14;1686997;82;27818;-73
2020/12/07 10:52:31;;;;;;;20.90;10.55;;;;;;;4.19;77.13;99778.77;1704463;81;26485;-71
2020/12/07 10:54:59;;;;;;;18.73;10.40;;;;;;;4.18;77.02;99790.29;1715991;81;25975;-71
2020/12/07 10:57:26;;;;;;;23.25;10.78;;;;;;;4.21;77.07;99795.50;1720121;81;25958;-73
2020/12/07 10:59:54;;;;;;;22.70;11.97;;;;;;;4.26;77.05;99796.69;1720258;81;25775;-73
2020/12/07 11:02:22;;;;;;;30.12;14.55;;;;;;;4.33;77.06;99796.03;1719734;81;28009;-72
2020/12/07 11:04:49;;;;;;;24.55;11.80;;;;;;;4.36;76.97;99803.89;1717433;81;25861;-72
2020/12/07 11:07:18;;;;;;;22.93;12.98;;;;;;;4.37;76.86;99800.33;1717736;81;25804;-71
2020/12/07 11:09:46;;;;;;;21.95;11.03;;;;;;;4.42;76.95;99810.34;1719593;81;26821;-72
2020/12/07 11:12:17;;;;;;;26.23;11.43;;;;;;;4.44;76.88;99806.72;1716957;81;26527;-74
2020/12/07 11:14:44;;;;;;;19.48;11.22;;;;;;;4.49;76.89;99802.59;1724849;81;27522;-73
2020/12/07 11:17:12;;;;;;;18.62;10.53;;;;;;;4.50;76.85;99804.33;1693477;81;25860;-74
2020/12/07 11:19:44;;;;;;;21.00;10.85;;;;;;;4.53;76.74;99803.77;1701162;82;26041;-73
2020/12/07 11:22:12;;;;;;;22.45;11.25;;;;;;;4.54;76.70;99800.20;1700992;81;26219;-75
2020/12/07 11:24:39;;;;;;;21.50;11.10;;;;;;;4.59;76.74;99794.74;1719171;81;25773;-72
2020/12/07 11:27:07;;;;;;;19.98;10.60;;;;;;;4.62;76.72;99802.60;1694859;81;28128;-72
2020/12/07 11:29:35;;;;;;;22.60;11.03;;;;;;;4.63;76.56;99808.32;1687519;83;25985;-72
2020/12/07 11:32:03;;;;;;;19.15;10.75;;;;;;;4.63;76.55;99807.45;1696495;82;25861;-72
2020/12/07 11:34:30;;;;;;;22.65;10.85;;;;;;;4.65;76.53;99802.50;1755799;80;26036;-71
2020/12/07 11:36:58;;;;;;;25.43;11.50;;;;;;;4.68;76.52;99806.38;1729377;80;26194;-72
2020/12/07 11:39:35;;;;;;;23.65;11.35;;;;;;;4.69;76.44;99803.27;1757825;80;27765;-71
2020/12/07 11:44:32;;;;;;;25.30;11.18;;;;;;;4.80;76.46;99806.44;1733999;81;25929;-72
2020/12/07 11:47:07;;;;;;;27.80;12.63;;;;;;;4.85;76.47;99808.48;1705978;82;25782;-73
2020/12/07 11:49:33;;;;;;;21.95;11.48;;;;;;;4.88;76.36;99814.56;1699278;81;26631;-73
2020/12/07 11:52:04;;;;;;;37.63;12.82;;;;;;;4.95;76.41;99804.59;1732837;81;27816;-74
2020/12/07 11:54:33;;;;;;;22.32;11.53;;;;;;;5.01;76.40;99805.72;1708559;81;26473;-72
2020/12/07 11:57:05;;;;;;;30.75;11.08;;;;;;;5.05;76.27;99807.81;1711503;81;25893;-72
2020/12/07 11:59:34;;;;;;;29.63;14.00;;;;;;;5.06;76.18;99802.45;1727570;81;25860;-71